sensor_id;sensor_type;location;lat;lon;timestamp;pressure;altitude;pressure_sealevel;temperature;humidity
52777;BME280;38656;54.260;20.822;2023-03-05T00:01:17;100165.44;;;12.06;42.73
52777;BME280;38656;54.260;20.822;2023-03-05T00:03:44;100166.44;;;11.45;44.17
52777;BME280;38656;54.260;20.822;2023-03-05T00:06:11;100164.53;;;11.06;44.64
52777;BME280;38656;54.260;20.822;2023-03-05T00:08:37;100164.59;;;11.96;44.04
52777;BME280;38656;54.260;20.822;2023-03-05T00:11:08;100158.72;;;11.82;43.55
52777;BME280;38656;54.260;20.822;2023-03-05T00:13:35;100166.50;;;9.11;45.54
52777;BME280;38656;54.260;20.822;2023-03-05T00:16:09;100152.81;;;10.37;44.49
52777;BME280;38656;54.260;20.822;2023-03-05T00:18:36;100153.25;;;10.42;43.45
52777;BME280;38656;54.260;20.822;2023-03-05T00:21:03;100156.75;;;10.74;42.98
52777;BME280;38656;54.260;20.822;2023-03-05T00:23:29;100149.28;;;11.20;41.91
52777;BME280;38656;54.260;20.822;2023-03-05T00:25:56;100154.13;;;10.10;42.44
52777;BME280;38656;54.260;20.822;2023-03-05T00:28:22;100147.81;;;10.65;41.90
52777;BME280;38656;54.260;20.822;2023-03-05T00:30:48;100138.28;;;11.14;41.52
52777;BME280;38656;54.260;20.822;2023-03-05T00:33:14;100146.47;;;10.07;42.40
52777;BME280;38656;54.260;20.822;2023-03-05T00:35:43;100137.41;;;11.04;41.03
52777;BME280;38656;54.260;20.822;2023-03-05T00:38:11;100133.59;;;10.87;42.05
52777;BME280;38656;54.260;20.822;2023-03-05T00:40:38;100134.59;;;11.66;40.43
52777;BME280;38656;54.260;20.822;2023-03-05T00:43:06;100127.78;;;10.93;42.66
52777;BME280;38656;54.260;20.822;2023-03-05T00:45:32;100131.91;;;11.27;40.71
52777;BME280;38656;54.260;20.822;2023-03-05T00:47:59;100127.72;;;12.51;39.37
52777;BME280;38656;54.260;20.822;2023-03-05T00:50:26;100124.41;;;11.51;40.12
52777;BME280;38656;54.260;20.822;2023-03-05T00:52:52;100132.09;;;9.35;42.78
52777;BME280;38656;54.260;20.822;2023-03-05T00:55:19;100124.88;;;10.02;41.37
52777;BME280;38656;54.260;20.822;2023-03-05T00:57:45;100117.75;;;9.93;41.97
52777;BME280;38656;54.260;20.822;2023-03-05T01:00:13;100118.44;;;10.89;40.79
52777;BME280;38656;54.260;20.822;2023-03-05T01:02:39;100115.38;;;9.90;40.96
52777;BME280;38656;54.260;20.822;2023-03-05T01:05:06;100114.81;;;11.31;38.58
52777;BME280;38656;54.260;20.822;2023-03-05T01:07:32;100112.16;;;10.80;39.55
52777;BME280;38656;54.260;20.822;2023-03-05T01:09:59;100107.47;;;10.94;38.87
52777;BME280;38656;54.260;20.822;2023-03-05T01:12:25;100108.84;;;9.41;40.56
52777;BME280;38656;54.260;20.822;2023-03-05T01:14:51;100109.88;;;9.06;40.69
52777;BME280;38656;54.260;20.822;2023-03-05T01:17:17;100104.66;;;9.70;40.40
52777;BME280;38656;54.260;20.822;2023-03-05T01:19:44;100098.00;;;10.08;40.58
52777;BME280;38656;54.260;20.822;2023-03-05T01:22:10;100094.25;;;10.32;39.45
52777;BME280;38656;54.260;20.822;2023-03-05T01:24:36;100095.78;;;9.39;40.63
52777;BME280;38656;54.260;20.822;2023-03-05T01:27:02;100092.00;;;9.64;41.20
52777;BME280;38656;54.260;20.822;2023-03-05T01:29:28;100096.34;;;10.07;40.34
52777;BME280;38656;54.260;20.822;2023-03-05T01:31:54;100092.91;;;8.53;42.31
52777;BME280;38656;54.260;20.822;2023-03-05T01:34:21;100096.13;;;10.41;40.21
52777;BME280;38656;54.260;20.822;2023-03-05T01:36:47;100089.38;;;10.06;40.69
52777;BME280;38656;54.260;20.822;2023-03-05T01:39:16;100094.56;;;8.99;40.92
52777;BME280;38656;54.260;20.822;2023-03-05T01:41:42;100086.03;;;10.47;40.05
52777;BME280;38656;54.260;20.822;2023-03-05T01:44:23;100084.13;;;9.53;40.36
52777;BME280;38656;54.260;20.822;2023-03-05T01:46:50;100086.22;;;8.72;42.36
52777;BME280;38656;54.260;20.822;2023-03-05T01:49:23;100080.91;;;10.86;38.22
52777;BME280;38656;54.260;20.822;2023-03-05T01:55:24;100072.91;;;10.35;39.87
52777;BME280;38656;54.260;20.822;2023-03-05T02:00:31;100069.94;;;9.65;40.66
52777;BME280;38656;54.260;20.822;2023-03-05T02:03:02;100060.78;;;9.69;41.32
52777;BME280;38656;54.260;20.822;2023-03-05T02:05:32;100063.41;;;9.04;41.80
52777;BME280;38656;54.260;20.822;2023-03-05T02:08:00;100060.97;;;9.24;41.17
52777;BME280;38656;54.260;20.822;2023-03-05T02:10:29;100061.81;;;8.47;41.25
52777;BME280;38656;54.260;20.822;2023-03-05T02:13:00;100061.22;;;9.21;41.92
52777;BME280;38656;54.260;20.822;2023-03-05T02:15:28;100056.38;;;9.05;42.19
52777;BME280;38656;54.260;20.822;2023-03-05T02:17:55;100046.91;;;9.67;41.89
52777;BME280;38656;54.260;20.822;2023-03-05T02:20:24;100048.28;;;9.29;42.12
52777;BME280;38656;54.260;20.822;2023-03-05T02:22:51;100046.66;;;10.13;40.95
52777;BME280;38656;54.260;20.822;2023-03-05T02:25:20;100042.69;;;10.28;41.02
52777;BME280;38656;54.260;20.822;2023-03-05T02:30:44;100041.19;;;9.30;42.59
52777;BME280;38656;54.260;20.822;2023-03-05T02:33:12;100044.31;;;8.68;42.87
52777;BME280;38656;54.260;20.822;2023-03-05T02:35:38;100034.75;;;10.18;40.76
52777;BME280;38656;54.260;20.822;2023-03-05T02:38:05;100037.25;;;10.91;39.30
52777;BME280;38656;54.260;20.822;2023-03-05T02:40:31;100039.06;;;8.80;42.64
52777;BME280;38656;54.260;20.822;2023-03-05T02:42:57;100045.53;;;8.76;42.21
52777;BME280;38656;54.260;20.822;2023-03-05T02:45:23;100035.19;;;10.02;41.73
52777;BME280;38656;54.260;20.822;2023-03-05T02:47:49;100029.06;;;11.73;39.60
52777;BME280;38656;54.260;20.822;2023-03-05T02:50:16;100033.00;;;9.12;41.91
52777;BME280;38656;54.260;20.822;2023-03-05T02:52:42;100029.75;;;10.25;40.84
52777;BME280;38656;54.260;20.822;2023-03-05T02:55:08;100034.44;;;9.69;41.76
52777;BME280;38656;54.260;20.822;2023-03-05T02:57:35;100026.28;;;9.94;41.06
52777;BME280;38656;54.260;20.822;2023-03-05T03:00:01;100028.97;;;8.96;42.20
52777;BME280;38656;54.260;20.822;2023-03-05T03:02:28;100039.78;;;9.26;41.30
52777;BME280;38656;54.260;20.822;2023-03-05T03:04:54;100039.28;;;8.09;43.30
52777;BME280;38656;54.260;20.822;2023-03-05T03:07:20;100034.50;;;8.82;42.72
52777;BME280;38656;54.260;20.822;2023-03-05T03:09:46;100035.56;;;9.02;42.83
52777;BME280;38656;54.260;20.822;2023-03-05T03:12:13;100031.28;;;9.22;41.93
52777;BME280;38656;54.260;20.822;2023-03-05T03:14:40;100030.13;;;10.10;41.16
52777;BME280;38656;54.260;20.822;2023-03-05T03:17:17;100032.31;;;8.98;42.04
52777;BME280;38656;54.260;20.822;2023-03-05T03:19:44;100023.47;;;10.37;39.99
52777;BME280;38656;54.260;20.822;2023-03-05T03:22:12;100027.34;;;10.33;40.66
52777;BME280;38656;54.260;20.822;2023-03-05T03:24:41;100029.03;;;9.71;40.48
52777;BME280;38656;54.260;20.822;2023-03-05T03:27:07;100029.84;;;8.40;42.75
52777;BME280;38656;54.260;20.822;2023-03-05T03:29:35;100024.66;;;11.34;38.80
52777;BME280;38656;54.260;20.822;2023-03-05T03:32:01;100018.19;;;8.99;41.76
52777;BME280;38656;54.260;20.822;2023-03-05T03:34:27;100024.09;;;9.24;42.06
52777;BME280;38656;54.260;20.822;2023-03-05T03:36:54;100013.56;;;9.78;40.46
52777;BME280;38656;54.260;20.822;2023-03-05T03:39:20;100018.38;;;7.60;42.60
52777;BME280;38656;54.260;20.822;2023-03-05T03:41:50;100010.06;;;10.29;41.04
52777;BME280;38656;54.260;20.822;2023-03-05T03:44:18;100017.06;;;8.36;42.84
52777;BME280;38656;54.260;20.822;2023-03-05T03:46:46;100004.13;;;8.66;41.94
52777;BME280;38656;54.260;20.822;2023-03-05T03:49:20;100001.03;;;8.61;41.64
52777;BME280;38656;54.260;20.822;2023-03-05T03:51:48;99992.13;;;8.85;42.52
52777;BME280;38656;54.260;20.822;2023-03-05T03:54:17;99996.81;;;8.70;43.19
52777;BME280;38656;54.260;20.822;2023-03-05T03:56:43;99987.09;;;8.82;41.29
52777;BME280;38656;54.260;20.822;2023-03-05T03:59:10;99986.97;;;10.42;40.10
52777;BME280;38656;54.260;20.822;2023-03-05T04:01:37;99976.50;;;9.79;40.73
52777;BME280;38656;54.260;20.822;2023-03-05T04:04:04;99979.69;;;8.87;42.66
52777;BME280;38656;54.260;20.822;2023-03-05T04:06:30;99979.41;;;10.78;39.59
52777;BME280;38656;54.260;20.822;2023-03-05T04:08:57;99980.56;;;8.65;41.05
52777;BME280;38656;54.260;20.822;2023-03-05T04:11:23;99969.97;;;10.35;40.49
52777;BME280;38656;54.260;20.822;2023-03-05T04:13:50;99956.31;;;9.89;40.29
52777;BME280;38656;54.260;20.822;2023-03-05T04:16:16;99961.56;;;10.61;38.26
52777;BME280;38656;54.260;20.822;2023-03-05T04:18:44;99957.47;;;10.06;39.77
52777;BME280;38656;54.260;20.822;2023-03-05T04:21:10;99952.47;;;11.24;37.68
52777;BME280;38656;54.260;20.822;2023-03-05T04:23:37;99949.50;;;10.18;38.68
52777;BME280;38656;54.260;20.822;2023-03-05T04:26:04;99952.38;;;9.84;39.56
52777;BME280;38656;54.260;20.822;2023-03-05T04:28:30;99953.94;;;9.23;40.92
52777;BME280;38656;54.260;20.822;2023-03-05T04:30:57;99959.38;;;8.78;41.42
52777;BME280;38656;54.260;20.822;2023-03-05T04:33:23;99940.94;;;9.73;39.61
52777;BME280;38656;54.260;20.822;2023-03-05T04:35:50;99948.94;;;10.24;39.43
52777;BME280;38656;54.260;20.822;2023-03-05T04:38:16;99939.22;;;9.42;41.05
52777;BME280;38656;54.260;20.822;2023-03-05T04:40:44;99931.97;;;9.55;40.26
52777;BME280;38656;54.260;20.822;2023-03-05T04:43:10;99937.56;;;7.87;42.32
52777;BME280;38656;54.260;20.822;2023-03-05T04:45:39;99935.28;;;7.82;41.40
52777;BME280;38656;54.260;20.822;2023-03-05T04:48:05;99927.16;;;7.96;41.79
52777;BME280;38656;54.260;20.822;2023-03-05T04:50:32;99915.88;;;9.58;40.37
52777;BME280;38656;54.260;20.822;2023-03-05T04:52:58;99928.59;;;8.01;42.72
52777;BME280;38656;54.260;20.822;2023-03-05T04:55:25;99922.44;;;9.00;41.39
52777;BME280;38656;54.260;20.822;2023-03-05T04:57:52;99923.56;;;8.20;41.84
52777;BME280;38656;54.260;20.822;2023-03-05T05:00:19;99918.84;;;9.96;39.10
52777;BME280;38656;54.260;20.822;2023-03-05T05:02:47;99926.28;;;9.81;39.83
52777;BME280;38656;54.260;20.822;2023-03-05T05:05:17;99934.22;;;8.07;42.17
52777;BME280;38656;54.260;20.822;2023-03-05T05:07:43;99928.09;;;8.96;40.82
52777;BME280;38656;54.260;20.822;2023-03-05T05:10:10;99930.69;;;8.75;40.70
52777;BME280;38656;54.260;20.822;2023-03-05T05:12:37;99932.03;;;8.35;41.18
52777;BME280;38656;54.260;20.822;2023-03-05T05:15:05;99923.09;;;9.56;39.94
52777;BME280;38656;54.260;20.822;2023-03-05T05:17:31;99928.13;;;9.17;40.92
52777;BME280;38656;54.260;20.822;2023-03-05T05:19:59;99925.78;;;9.45;39.94
52777;BME280;38656;54.260;20.822;2023-03-05T05:22:27;99916.28;;;9.32;40.92
52777;BME280;38656;54.260;20.822;2023-03-05T05:24:54;99919.94;;;9.93;40.59
52777;BME280;38656;54.260;20.822;2023-03-05T05:27:20;99914.72;;;9.09;41.60
52777;BME280;38656;54.260;20.822;2023-03-05T05:29:47;99909.03;;;10.58;39.31
52777;BME280;38656;54.260;20.822;2023-03-05T05:32:18;99913.78;;;9.10;41.14
52777;BME280;38656;54.260;20.822;2023-03-05T05:34:45;99918.88;;;10.05;39.91
52777;BME280;38656;54.260;20.822;2023-03-05T05:37:11;99933.13;;;9.62;39.38
52777;BME280;38656;54.260;20.822;2023-03-05T05:39:37;99931.75;;;9.68;40.14
52777;BME280;38656;54.260;20.822;2023-03-05T05:42:04;99940.63;;;9.03;41.56
52777;BME280;38656;54.260;20.822;2023-03-05T05:44:30;99945.16;;;9.01;41.89
52777;BME280;38656;54.260;20.822;2023-03-05T05:46:56;99949.28;;;8.94;42.02
52777;BME280;38656;54.260;20.822;2023-03-05T05:49:22;99942.41;;;9.24;41.99
52777;BME280;38656;54.260;20.822;2023-03-05T05:51:48;99939.16;;;10.05;39.44
52777;BME280;38656;54.260;20.822;2023-03-05T05:54:15;99940.22;;;8.76;42.63
52777;BME280;38656;54.260;20.822;2023-03-05T05:56:41;99938.22;;;9.85;41.63
52777;BME280;38656;54.260;20.822;2023-03-05T05:59:08;99939.53;;;11.21;39.49
52777;BME280;38656;54.260;20.822;2023-03-05T06:01:35;99936.31;;;13.49;36.34
52777;BME280;38656;54.260;20.822;2023-03-05T06:04:01;99933.78;;;10.57;39.18
52777;BME280;38656;54.260;20.822;2023-03-05T06:06:28;99935.19;;;11.39;39.12
52777;BME280;38656;54.260;20.822;2023-03-05T06:08:55;99931.16;;;12.57;38.97
52777;BME280;38656;54.260;20.822;2023-03-05T06:11:24;99917.38;;;12.72;38.26
52777;BME280;38656;54.260;20.822;2023-03-05T06:13:50;99912.91;;;14.56;35.42
52777;BME280;38656;54.260;20.822;2023-03-05T06:16:19;99900.91;;;16.63;32.83
52777;BME280;38656;54.260;20.822;2023-03-05T06:18:46;99909.94;;;15.66;34.57
52777;BME280;38656;54.260;20.822;2023-03-05T06:21:14;99905.28;;;14.10;35.01
52777;BME280;38656;54.260;20.822;2023-03-05T06:23:43;99897.41;;;14.43;36.01
52777;BME280;38656;54.260;20.822;2023-03-05T06:26:12;99890.22;;;16.40;33.60
52777;BME280;38656;54.260;20.822;2023-03-05T06:28:38;99890.69;;;16.43;33.44
52777;BME280;38656;54.260;20.822;2023-03-05T06:31:07;99895.09;;;12.29;38.85
52777;BME280;38656;54.260;20.822;2023-03-05T06:33:34;99897.34;;;10.51;41.57
52777;BME280;38656;54.260;20.822;2023-03-05T06:36:07;99895.25;;;10.44;42.06
52777;BME280;38656;54.260;20.822;2023-03-05T06:38:33;99882.22;;;12.34;39.83
52777;BME280;38656;54.260;20.822;2023-03-05T06:41:01;99884.84;;;11.78;41.49
52777;BME280;38656;54.260;20.822;2023-03-05T06:43:31;99886.75;;;11.48;41.10
52777;BME280;38656;54.260;20.822;2023-03-05T06:46:06;99893.22;;;10.77;42.64
52777;BME280;38656;54.260;20.822;2023-03-05T06:48:33;99885.22;;;12.85;39.68
52777;BME280;38656;54.260;20.822;2023-03-05T06:51:00;99892.81;;;10.22;42.38
52777;BME280;38656;54.260;20.822;2023-03-05T06:53:26;99897.34;;;9.69;44.60
52777;BME280;38656;54.260;20.822;2023-03-05T06:55:53;99895.78;;;9.88;43.80
52777;BME280;38656;54.260;20.822;2023-03-05T06:58:20;99889.00;;;11.43;41.71
52777;BME280;38656;54.260;20.822;2023-03-05T07:00:46;99897.47;;;9.16;44.75
52777;BME280;38656;54.260;20.822;2023-03-05T07:03:12;99897.66;;;10.67;42.84
52777;BME280;38656;54.260;20.822;2023-03-05T07:05:40;99896.25;;;10.43;43.47
52777;BME280;38656;54.260;20.822;2023-03-05T07:08:07;99898.75;;;13.36;39.68
52777;BME280;38656;54.260;20.822;2023-03-05T07:10:38;99900.66;;;9.92;44.42
52777;BME280;38656;54.260;20.822;2023-03-05T07:13:05;99898.00;;;11.98;41.24
52777;BME280;38656;54.260;20.822;2023-03-05T07:15:31;99896.72;;;12.93;39.71
52777;BME280;38656;54.260;20.822;2023-03-05T07:17:57;99896.00;;;10.95;42.88
52777;BME280;38656;54.260;20.822;2023-03-05T07:20:23;99897.34;;;11.29;42.40
52777;BME280;38656;54.260;20.822;2023-03-05T07:22:50;99890.44;;;11.08;42.64
52777;BME280;38656;54.260;20.822;2023-03-05T07:25:16;99888.31;;;11.41;43.38
52777;BME280;38656;54.260;20.822;2023-03-05T07:27:47;99895.88;;;9.55;45.83
52777;BME280;38656;54.260;20.822;2023-03-05T07:30:14;99886.16;;;9.77;45.26
52777;BME280;38656;54.260;20.822;2023-03-05T07:32:40;99881.53;;;10.90;43.51
52777;BME280;38656;54.260;20.822;2023-03-05T07:35:07;99880.72;;;10.79;43.77
52777;BME280;38656;54.260;20.822;2023-03-05T07:37:33;99878.75;;;10.91;42.06
52777;BME280;38656;54.260;20.822;2023-03-05T07:39:59;99871.50;;;12.53;40.58
52777;BME280;38656;54.260;20.822;2023-03-05T07:42:26;99863.97;;;13.73;39.03
52777;BME280;38656;54.260;20.822;2023-03-05T07:44:52;99873.88;;;14.48;38.23
52777;BME280;38656;54.260;20.822;2023-03-05T07:47:18;99857.47;;;15.11;36.58
52777;BME280;38656;54.260;20.822;2023-03-05T07:49:44;99872.81;;;13.30;38.45
52777;BME280;38656;54.260;20.822;2023-03-05T07:52:11;99878.31;;;11.73;40.25
52777;BME280;38656;54.260;20.822;2023-03-05T07:54:40;99870.13;;;11.66;40.90
52777;BME280;38656;54.260;20.822;2023-03-05T07:57:07;99876.28;;;12.50;38.76
52777;BME280;38656;54.260;20.822;2023-03-05T07:59:34;99882.00;;;13.61;39.96
52777;BME280;38656;54.260;20.822;2023-03-05T08:02:00;99882.59;;;14.24;37.12
52777;BME280;38656;54.260;20.822;2023-03-05T08:04:27;99883.53;;;14.15;38.22
52777;BME280;38656;54.260;20.822;2023-03-05T08:06:54;99881.63;;;12.40;41.05
52777;BME280;38656;54.260;20.822;2023-03-05T08:09:20;99878.34;;;15.63;35.99
52777;BME280;38656;54.260;20.822;2023-03-05T08:11:47;99878.34;;;15.63;36.96
52777;BME280;38656;54.260;20.822;2023-03-05T08:14:13;99882.91;;;12.36;40.18
52777;BME280;38656;54.260;20.822;2023-03-05T08:16:40;99887.09;;;12.56;42.40
52777;BME280;38656;54.260;20.822;2023-03-05T08:19:06;99887.66;;;11.00;44.59
52777;BME280;38656;54.260;20.822;2023-03-05T08:21:35;99875.88;;;11.99;43.13
52777;BME280;38656;54.260;20.822;2023-03-05T08:24:03;99866.31;;;12.80;41.13
52777;BME280;38656;54.260;20.822;2023-03-05T08:26:32;99853.44;;;13.90;41.45
52777;BME280;38656;54.260;20.822;2023-03-05T08:28:59;99843.75;;;15.55;39.22
52777;BME280;38656;54.260;20.822;2023-03-05T08:31:26;99850.97;;;12.91;40.63
52777;BME280;38656;54.260;20.822;2023-03-05T08:33:54;99847.97;;;13.13;41.04
52777;BME280;38656;54.260;20.822;2023-03-05T08:36:21;99851.75;;;12.66;40.68
52777;BME280;38656;54.260;20.822;2023-03-05T08:38:48;99854.50;;;13.71;40.37
52777;BME280;38656;54.260;20.822;2023-03-05T08:41:16;99873.00;;;11.82;42.73
52777;BME280;38656;54.260;20.822;2023-03-05T08:43:43;99897.94;;;10.54;43.98
52777;BME280;38656;54.260;20.822;2023-03-05T08:46:10;99881.38;;;12.15;45.10
52777;BME280;38656;54.260;20.822;2023-03-05T08:48:37;99895.72;;;17.99;46.62
52777;BME280;38656;54.260;20.822;2023-03-05T08:51:11;99898.69;;;14.90;45.47
52777;BME280;38656;54.260;20.822;2023-03-05T08:53:39;99894.63;;;13.68;55.78
52777;BME280;38656;54.260;20.822;2023-03-05T08:56:06;99896.53;;;16.70;52.47
52777;BME280;38656;54.260;20.822;2023-03-05T08:58:32;99899.00;;;14.71;49.53
52777;BME280;38656;54.260;20.822;2023-03-05T09:00:59;99889.25;;;14.28;48.58
52777;BME280;38656;54.260;20.822;2023-03-05T09:03:25;99871.13;;;14.83;47.28
52777;BME280;38656;54.260;20.822;2023-03-05T09:05:52;99872.28;;;13.78;48.60
52777;BME280;38656;54.260;20.822;2023-03-05T09:08:18;99880.94;;;14.91;45.05
52777;BME280;38656;54.260;20.822;2023-03-05T09:10:45;99876.97;;;17.01;42.14
52777;BME280;38656;54.260;20.822;2023-03-05T09:13:12;99891.03;;;13.77;45.58
52777;BME280;38656;54.260;20.822;2023-03-05T09:15:38;99886.91;;;15.26;44.40
52777;BME280;38656;54.260;20.822;2023-03-05T09:18:05;99881.41;;;16.94;40.92
52777;BME280;38656;54.260;20.822;2023-03-05T09:20:34;99885.16;;;16.22;42.20
52777;BME280;38656;54.260;20.822;2023-03-05T09:23:01;99883.34;;;14.00;42.36
52777;BME280;38656;54.260;20.822;2023-03-05T09:25:27;99895.13;;;14.06;41.97
52777;BME280;38656;54.260;20.822;2023-03-05T09:27:54;99879.97;;;15.89;41.91
52777;BME280;38656;54.260;20.822;2023-03-05T09:30:20;99878.72;;;14.61;43.28
52777;BME280;38656;54.260;20.822;2023-03-05T09:32:46;99876.94;;;15.92;42.89
52777;BME280;38656;54.260;20.822;2023-03-05T09:35:12;99880.13;;;13.54;44.51
52777;BME280;38656;54.260;20.822;2023-03-05T09:37:39;99863.13;;;15.08;41.38
52777;BME280;38656;54.260;20.822;2023-03-05T09:40:05;99871.16;;;15.88;40.94
52777;BME280;38656;54.260;20.822;2023-03-05T09:42:49;99862.72;;;17.47;38.04
52777;BME280;38656;54.260;20.822;2023-03-05T09:50:47;99853.63;;;19.94;35.11
52777;BME280;38656;54.260;20.822;2023-03-05T09:53:42;99847.53;;;16.94;37.51
52777;BME280;38656;54.260;20.822;2023-03-05T09:56:18;99856.56;;;19.36;35.17
52777;BME280;38656;54.260;20.822;2023-03-05T10:01:45;99863.50;;;17.03;39.16
52777;BME280;38656;54.260;20.822;2023-03-05T10:12:25;99881.63;;;16.53;37.86
52777;BME280;38656;54.260;20.822;2023-03-05T10:14:53;99872.34;;;16.72;39.75
52777;BME280;38656;54.260;20.822;2023-03-05T10:23:15;99861.41;;;17.28;40.16
52777;BME280;38656;54.260;20.822;2023-03-05T10:28:21;99864.38;;;20.01;37.71
52777;BME280;38656;54.260;20.822;2023-03-05T10:31:09;99858.13;;;19.87;36.95
52777;BME280;38656;54.260;20.822;2023-03-05T10:33:52;99855.28;;;16.58;41.70
52777;BME280;38656;54.260;20.822;2023-03-05T10:49:57;99858.13;;;17.85;37.09
52777;BME280;38656;54.260;20.822;2023-03-05T10:52:31;99856.25;;;16.65;39.90
52777;BME280;38656;54.260;20.822;2023-03-05T10:54:59;99843.31;;;17.00;38.32
52777;BME280;38656;54.260;20.822;2023-03-05T10:57:30;99841.38;;;16.16;40.38
52777;BME280;38656;54.260;20.822;2023-03-05T11:13:58;99818.81;;;23.96;30.67
52777;BME280;38656;54.260;20.822;2023-03-05T11:16:31;99828.16;;;24.12;29.03
52777;BME280;38656;54.260;20.822;2023-03-05T11:19:30;99828.09;;;17.83;34.87
52777;BME280;38656;54.260;20.822;2023-03-05T11:22:16;99827.63;;;23.04;29.77
52777;BME280;38656;54.260;20.822;2023-03-05T11:24:46;99813.84;;;26.71;26.79
52777;BME280;38656;54.260;20.822;2023-03-05T11:27:39;99815.22;;;24.75;27.15
52777;BME280;38656;54.260;20.822;2023-03-05T11:30:24;99828.50;;;21.03;29.27
52777;BME280;38656;54.260;20.822;2023-03-05T11:33:17;99827.22;;;17.08;36.96
52777;BME280;38656;54.260;20.822;2023-03-05T11:35:46;99821.28;;;17.96;35.84
52777;BME280;38656;54.260;20.822;2023-03-05T11:38:26;99830.00;;;16.31;36.76
52777;BME280;38656;54.260;20.822;2023-03-05T11:40:55;99823.28;;;17.04;37.91
52777;BME280;38656;54.260;20.822;2023-03-05T11:43:24;99823.69;;;15.92;40.29
52777;BME280;38656;54.260;20.822;2023-03-05T11:45:58;99833.38;;;14.96;42.09
52777;BME280;38656;54.260;20.822;2023-03-05T11:48:33;99823.59;;;18.57;38.52
52777;BME280;38656;54.260;20.822;2023-03-05T11:51:05;99813.13;;;17.38;39.95
52777;BME280;38656;54.260;20.822;2023-03-05T11:53:34;99813.34;;;16.75;39.37
52777;BME280;38656;54.260;20.822;2023-03-05T11:56:24;99817.97;;;21.94;33.62
52777;BME280;38656;54.260;20.822;2023-03-05T12:01:29;99820.53;;;18.02;36.36
52777;BME280;38656;54.260;20.822;2023-03-05T12:03:57;99812.75;;;21.27;33.15
52777;BME280;38656;54.260;20.822;2023-03-05T12:09:06;99811.88;;;20.26;33.28
52777;BME280;38656;54.260;20.822;2023-03-05T12:11:36;99801.63;;;25.17;29.27
52777;BME280;38656;54.260;20.822;2023-03-05T12:22:30;99795.88;;;24.36;29.24
52777;BME280;38656;54.260;20.822;2023-03-05T12:27:49;99798.97;;;21.17;30.50
52777;BME280;38656;54.260;20.822;2023-03-05T12:36:31;99792.56;;;21.04;30.40
52777;BME280;38656;54.260;20.822;2023-03-05T12:38:58;99786.19;;;21.78;29.00
52777;BME280;38656;54.260;20.822;2023-03-05T12:46:31;99788.56;;;23.20;27.92
52777;BME280;38656;54.260;20.822;2023-03-05T12:48:58;99785.34;;;20.92;28.73
52777;BME280;38656;54.260;20.822;2023-03-05T12:51:31;99792.19;;;21.80;28.81
52777;BME280;38656;54.260;20.822;2023-03-05T12:54:29;99781.00;;;22.21;28.22
52777;BME280;38656;54.260;20.822;2023-03-05T12:57:01;99770.88;;;25.71;25.73
52777;BME280;38656;54.260;20.822;2023-03-05T12:59:49;99781.34;;;20.27;30.54
52777;BME280;38656;54.260;20.822;2023-03-05T13:04:55;99777.59;;;21.62;29.51
52777;BME280;38656;54.260;20.822;2023-03-05T13:07:23;99780.53;;;23.69;27.01
52777;BME280;38656;54.260;20.822;2023-03-05T13:09:57;99766.72;;;23.03;27.72
52777;BME280;38656;54.260;20.822;2023-03-05T13:12:26;99768.25;;;22.10;28.91
52777;BME280;38656;54.260;20.822;2023-03-05T13:15:04;99768.41;;;22.54;29.18
52777;BME280;38656;54.260;20.822;2023-03-05T13:18:00;99773.25;;;19.52;31.77
52777;BME280;38656;54.260;20.822;2023-03-05T13:20:35;99777.28;;;17.92;32.89
52777;BME280;38656;54.260;20.822;2023-03-05T13:23:18;99760.38;;;20.84;29.28
52777;BME280;38656;54.260;20.822;2023-03-05T13:26:29;99771.41;;;20.08;30.40
52777;BME280;38656;54.260;20.822;2023-03-05T13:31:33;99776.63;;;15.36;36.39
52777;BME280;38656;54.260;20.822;2023-03-05T13:34:15;99778.13;;;17.17;34.50
52777;BME280;38656;54.260;20.822;2023-03-05T13:39:54;99765.84;;;18.41;32.58
52777;BME280;38656;54.260;20.822;2023-03-05T13:42:30;99772.50;;;20.33;30.95
52777;BME280;38656;54.260;20.822;2023-03-05T13:45:05;99767.13;;;19.65;30.99
52777;BME280;38656;54.260;20.822;2023-03-05T13:47:34;99767.28;;;21.52;29.03
52777;BME280;38656;54.260;20.822;2023-03-05T13:50:03;99775.84;;;19.04;30.15
52777;BME280;38656;54.260;20.822;2023-03-05T13:52:36;99769.00;;;20.40;27.93
52777;BME280;38656;54.260;20.822;2023-03-05T13:55:14;99774.13;;;18.89;28.24
52777;BME280;38656;54.260;20.822;2023-03-05T13:57:45;99768.81;;;19.03;28.78
52777;BME280;38656;54.260;20.822;2023-03-05T14:00:27;99773.63;;;19.49;27.57
52777;BME280;38656;54.260;20.822;2023-03-05T14:02:56;99768.22;;;19.01;28.20
52777;BME280;38656;54.260;20.822;2023-03-05T14:05:24;99772.78;;;19.07;27.99
52777;BME280;38656;54.260;20.822;2023-03-05T14:07:52;99776.13;;;18.87;29.07
52777;BME280;38656;54.260;20.822;2023-03-05T14:10:35;99773.94;;;20.43;28.18
52777;BME280;38656;54.260;20.822;2023-03-05T14:13:05;99767.78;;;21.09;26.68
52777;BME280;38656;54.260;20.822;2023-03-05T14:15:37;99761.88;;;21.59;26.21
52777;BME280;38656;54.260;20.822;2023-03-05T14:21:17;99765.56;;;19.84;28.00
52777;BME280;38656;54.260;20.822;2023-03-05T14:23:48;99769.84;;;18.73;29.07
52777;BME280;38656;54.260;20.822;2023-03-05T14:26:36;99758.50;;;20.98;27.62
52777;BME280;38656;54.260;20.822;2023-03-05T14:29:15;99768.06;;;19.44;28.87
52777;BME280;38656;54.260;20.822;2023-03-05T14:32:04;99761.13;;;20.18;28.05
52777;BME280;38656;54.260;20.822;2023-03-05T14:34:36;99757.28;;;20.94;27.32
52777;BME280;38656;54.260;20.822;2023-03-05T14:37:16;99762.97;;;20.11;27.64
52777;BME280;38656;54.260;20.822;2023-03-05T14:39:48;99757.84;;;20.23;28.21
52777;BME280;38656;54.260;20.822;2023-03-05T14:44:54;99752.63;;;22.83;26.24